sensor_id;sensor_type;location;lat;lon;timestamp;P1;durP1;ratioP1;P2;durP2;ratioP2
20972;SDS011;10645;52.370;13.314;2023-09-18T00:00:48;4.00;;;3.40;;
20972;SDS011;10645;52.370;13.314;2023-09-18T00:03:20;6.72;;;4.05;;
20972;SDS011;10645;52.370;13.314;2023-09-18T00:05:50;3.78;;;3.45;;
20972;SDS011;10645;52.370;13.314;2023-09-18T00:08:17;3.85;;;3.08;;
20972;SDS011;10645;52.370;13.314;2023-09-18T00:10:52;4.53;;;4.10;;
20972;SDS011;10645;52.370;13.314;2023-09-18T00:13:19;5.72;;;2.83;;
20972;SDS011;10645;52.370;13.314;2023-09-18T00:15:46;4.43;;;4.03;;
20972;SDS011;10645;52.370;13.314;2023-09-18T00:18:14;4.57;;;3.80;;
20972;SDS011;10645;52.370;13.314;2023-09-18T00:20:40;3.78;;;3.35;;
20972;SDS011;10645;52.370;13.314;2023-09-18T00:23:08;5.18;;;4.03;;
20972;SDS011;10645;52.370;13.314;2023-09-18T00:25:34;3.45;;;3.15;;
20972;SDS011;10645;52.370;13.314;2023-09-18T00:28:00;4.80;;;3.88;;
20972;SDS011;10645;52.370;13.314;2023-09-18T00:30:27;3.38;;;3.08;;
20972;SDS011;10645;52.370;13.314;2023-09-18T00:32:53;4.18;;;3.75;;
20972;SDS011;10645;52.370;13.314;2023-09-18T00:35:19;4.60;;;3.20;;
20972;SDS011;10645;52.370;13.314;2023-09-18T00:37:45;4.80;;;3.38;;
20972;SDS011;10645;52.370;13.314;2023-09-18T00:40:11;4.75;;;4.45;;
20972;SDS011;10645;52.370;13.314;2023-09-18T00:42:38;4.45;;;4.10;;
20972;SDS011;10645;52.370;13.314;2023-09-18T00:45:04;4.07;;;3.67;;
20972;SDS011;10645;52.370;13.314;2023-09-18T00:47:31;4.97;;;4.20;;
20972;SDS011;10645;52.370;13.314;2023-09-18T00:49:57;4.72;;;4.25;;
20972;SDS011;10645;52.370;13.314;2023-09-18T00:52:24;4.28;;;2.85;;
20972;SDS011;10645;52.370;13.314;2023-09-18T00:54:50;3.17;;;2.95;;
20972;SDS011;10645;52.370;13.314;2023-09-18T00:57:17;4.28;;;3.95;;
20972;SDS011;10645;52.370;13.314;2023-09-18T00:59:44;3.88;;;3.17;;
20972;SDS011;10645;52.370;13.314;2023-09-18T01:02:11;6.35;;;3.55;;
20972;SDS011;10645;52.370;13.314;2023-09-18T01:04:38;4.25;;;3.80;;
20972;SDS011;10645;52.370;13.314;2023-09-18T01:07:10;4.82;;;3.78;;
20972;SDS011;10645;52.370;13.314;2023-09-18T01:09:36;3.45;;;3.15;;
20972;SDS011;10645;52.370;13.314;2023-09-18T01:12:08;6.38;;;4.15;;
20972;SDS011;10645;52.370;13.314;2023-09-18T01:14:48;3.70;;;3.40;;
20972;SDS011;10645;52.370;13.314;2023-09-18T01:17:22;4.30;;;3.95;;
20972;SDS011;10645;52.370;13.314;2023-09-18T01:19:48;4.72;;;4.32;;
20972;SDS011;10645;52.370;13.314;2023-09-18T01:22:15;4.80;;;3.92;;
20972;SDS011;10645;52.370;13.314;2023-09-18T01:24:44;3.05;;;2.85;;
20972;SDS011;10645;52.370;13.314;2023-09-18T01:27:13;4.72;;;4.38;;
20972;SDS011;10645;52.370;13.314;2023-09-18T01:29:40;5.20;;;4.05;;
20972;SDS011;10645;52.370;13.314;2023-09-18T01:32:06;3.78;;;3.45;;
20972;SDS011;10645;52.370;13.314;2023-09-18T01:34:33;5.07;;;4.22;;
20972;SDS011;10645;52.370;13.314;2023-09-18T01:37:05;3.80;;;3.50;;
20972;SDS011;10645;52.370;13.314;2023-09-18T01:39:32;3.75;;;2.45;;
20972;SDS011;10645;52.370;13.314;2023-09-18T01:42:01;4.15;;;3.78;;
20972;SDS011;10645;52.370;13.314;2023-09-18T01:44:31;3.75;;;3.22;;
20972;SDS011;10645;52.370;13.314;2023-09-18T01:47:04;6.10;;;4.18;;
20972;SDS011;10645;52.370;13.314;2023-09-18T01:49:33;5.32;;;4.05;;
20972;SDS011;10645;52.370;13.314;2023-09-18T01:52:03;3.60;;;3.25;;
20972;SDS011;10645;52.370;13.314;2023-09-18T01:54:30;3.35;;;3.05;;
20972;SDS011;10645;52.370;13.314;2023-09-18T01:56:57;4.15;;;3.85;;
20972;SDS011;10645;52.370;13.314;2023-09-18T01:59:23;3.88;;;3.22;;
20972;SDS011;10645;52.370;13.314;2023-09-18T02:01:50;3.17;;;2.97;;
20972;SDS011;10645;52.370;13.314;2023-09-18T02:04:17;5.55;;;4.03;;
20972;SDS011;10645;52.370;13.314;2023-09-18T02:06:45;4.38;;;3.47;;
20972;SDS011;10645;52.370;13.314;2023-09-18T02:09:12;4.63;;;4.22;;
20972;SDS011;10645;52.370;13.314;2023-09-18T02:11:39;4.07;;;3.17;;
20972;SDS011;10645;52.370;13.314;2023-09-18T02:14:06;4.68;;;4.07;;
20972;SDS011;10645;52.370;13.314;2023-09-18T02:16:35;4.88;;;3.50;;
20972;SDS011;10645;52.370;13.314;2023-09-18T02:19:03;5.60;;;4.70;;
20972;SDS011;10645;52.370;13.314;2023-09-18T02:21:30;5.53;;;3.75;;
20972;SDS011;10645;52.370;13.314;2023-09-18T02:23:56;4.60;;;4.15;;
20972;SDS011;10645;52.370;13.314;2023-09-18T02:26:23;3.45;;;3.15;;
20972;SDS011;10645;52.370;13.314;2023-09-18T02:28:53;4.22;;;3.60;;
20972;SDS011;10645;52.370;13.314;2023-09-18T02:31:20;3.58;;;2.60;;
20972;SDS011;10645;52.370;13.314;2023-09-18T02:33:47;4.05;;;3.65;;
20972;SDS011;10645;52.370;13.314;2023-09-18T02:36:13;3.83;;;3.10;;
20972;SDS011;10645;52.370;13.314;2023-09-18T02:38:39;2.78;;;2.58;;
20972;SDS011;10645;52.370;13.314;2023-09-18T02:41:05;4.68;;;3.78;;
20972;SDS011;10645;52.370;13.314;2023-09-18T02:43:32;4.03;;;3.63;;
20972;SDS011;10645;52.370;13.314;2023-09-18T02:45:58;3.80;;;3.50;;
20972;SDS011;10645;52.370;13.314;2023-09-18T02:48:24;4.88;;;3.78;;
20972;SDS011;10645;52.370;13.314;2023-09-18T02:50:50;3.13;;;2.92;;
20972;SDS011;10645;52.370;13.314;2023-09-18T02:53:18;3.60;;;3.30;;
20972;SDS011;10645;52.370;13.314;2023-09-18T02:55:45;4.82;;;3.47;;
20972;SDS011;10645;52.370;13.314;2023-09-18T02:58:12;2.58;;;2.38;;
20972;SDS011;10645;52.370;13.314;2023-09-18T03:00:41;5.10;;;4.63;;
20972;SDS011;10645;52.370;13.314;2023-09-18T03:03:12;4.90;;;3.35;;
20972;SDS011;10645;52.370;13.314;2023-09-18T03:05:39;4.75;;;3.63;;
20972;SDS011;10645;52.370;13.314;2023-09-18T03:08:07;4.97;;;4.47;;
20972;SDS011;10645;52.370;13.314;2023-09-18T03:10:34;3.33;;;3.05;;
20972;SDS011;10645;52.370;13.314;2023-09-18T03:13:01;6.80;;;4.82;;
20972;SDS011;10645;52.370;13.314;2023-09-18T03:15:29;3.95;;;3.25;;
20972;SDS011;10645;52.370;13.314;2023-09-18T03:17:56;4.22;;;3.78;;
20972;SDS011;10645;52.370;13.314;2023-09-18T03:20:24;3.60;;;3.30;;
20972;SDS011;10645;52.370;13.314;2023-09-18T03:22:52;4.63;;;4.00;;
20972;SDS011;10645;52.370;13.314;2023-09-18T03:25:23;3.42;;;3.22;;
20972;SDS011;10645;52.370;13.314;2023-09-18T03:27:50;4.45;;;3.30;;
20972;SDS011;10645;52.370;13.314;2023-09-18T03:30:18;5.35;;;4.35;;
20972;SDS011;10645;52.370;13.314;2023-09-18T03:32:45;5.07;;;3.50;;
20972;SDS011;10645;52.370;13.314;2023-09-18T03:35:11;4.93;;;2.88;;
20972;SDS011;10645;52.370;13.314;2023-09-18T03:37:45;4.05;;;3.65;;
20972;SDS011;10645;52.370;13.314;2023-09-18T03:40:16;4.82;;;3.58;;
20972;SDS011;10645;52.370;13.314;2023-09-18T03:42:43;4.05;;;3.58;;
20972;SDS011;10645;52.370;13.314;2023-09-18T03:45:10;54.63;;;36.15;;
20972;SDS011;10645;52.370;13.314;2023-09-18T03:47:40;48.80;;;31.92;;
20972;SDS011;10645;52.370;13.314;2023-09-18T03:50:10;34.17;;;26.80;;
20972;SDS011;10645;52.370;13.314;2023-09-18T03:52:37;23.17;;;20.25;;
20972;SDS011;10645;52.370;13.314;2023-09-18T03:55:05;28.83;;;18.45;;
20972;SDS011;10645;52.370;13.314;2023-09-18T03:57:31;62.67;;;34.83;;
20972;SDS011;10645;52.370;13.314;2023-09-18T03:59:58;21.30;;;15.93;;
20972;SDS011;10645;52.370;13.314;2023-09-18T04:02:24;8.73;;;7.93;;
20972;SDS011;10645;52.370;13.314;2023-09-18T04:04:51;20.08;;;4.68;;
20972;SDS011;10645;52.370;13.314;2023-09-18T04:07:18;3.25;;;2.95;;
20972;SDS011;10645;52.370;13.314;2023-09-18T04:09:45;3.88;;;3.47;;
20972;SDS011;10645;52.370;13.314;2023-09-18T04:12:11;3.95;;;3.10;;
20972;SDS011;10645;52.370;13.314;2023-09-18T04:14:38;4.82;;;4.03;;
20972;SDS011;10645;52.370;13.314;2023-09-18T04:17:04;3.42;;;3.13;;
20972;SDS011;10645;52.370;13.314;2023-09-18T04:19:30;5.13;;;3.15;;
20972;SDS011;10645;52.370;13.314;2023-09-18T04:21:56;3.42;;;3.20;;
20972;SDS011;10645;52.370;13.314;2023-09-18T04:24:22;4.80;;;3.67;;
20972;SDS011;10645;52.370;13.314;2023-09-18T04:26:49;4.57;;;3.30;;
20972;SDS011;10645;52.370;13.314;2023-09-18T04:29:18;5.72;;;4.50;;
20972;SDS011;10645;52.370;13.314;2023-09-18T04:31:46;4.07;;;3.60;;
20972;SDS011;10645;52.370;13.314;2023-09-18T04:34:13;4.10;;;3.17;;
20972;SDS011;10645;52.370;13.314;2023-09-18T04:36:39;4.07;;;3.25;;
20972;SDS011;10645;52.370;13.314;2023-09-18T04:39:06;4.40;;;4.03;;
20972;SDS011;10645;52.370;13.314;2023-09-18T04:41:33;3.05;;;2.72;;
20972;SDS011;10645;52.370;13.314;2023-09-18T04:44:00;3.78;;;3.03;;
20972;SDS011;10645;52.370;13.314;2023-09-18T04:46:26;3.83;;;2.90;;
20972;SDS011;10645;52.370;13.314;2023-09-18T04:48:52;3.47;;;3.17;;
20972;SDS011;10645;52.370;13.314;2023-09-18T04:51:19;5.13;;;4.10;;
20972;SDS011;10645;52.370;13.314;2023-09-18T04:53:45;3.88;;;3.55;;
20972;SDS011;10645;52.370;13.314;2023-09-18T04:56:11;3.28;;;2.72;;
20972;SDS011;10645;52.370;13.314;2023-09-18T04:58:37;6.90;;;4.00;;
20972;SDS011;10645;52.370;13.314;2023-09-18T05:01:04;4.85;;;3.80;;
20972;SDS011;10645;52.370;13.314;2023-09-18T05:03:33;5.03;;;4.53;;
20972;SDS011;10645;52.370;13.314;2023-09-18T05:06:00;10.85;;;3.20;;
20972;SDS011;10645;52.370;13.314;2023-09-18T05:08:26;6.18;;;4.40;;
20972;SDS011;10645;52.370;13.314;2023-09-18T05:10:52;3.60;;;3.10;;
20972;SDS011;10645;52.370;13.314;2023-09-18T05:13:18;4.32;;;3.47;;
20972;SDS011;10645;52.370;13.314;2023-09-18T05:15:44;6.35;;;3.63;;
20972;SDS011;10645;52.370;13.314;2023-09-18T05:18:10;4.13;;;3.65;;
20972;SDS011;10645;52.370;13.314;2023-09-18T05:20:36;5.10;;;4.30;;
20972;SDS011;10645;52.370;13.314;2023-09-18T05:23:02;6.55;;;4.53;;
20972;SDS011;10645;52.370;13.314;2023-09-18T05:25:29;4.20;;;3.60;;
20972;SDS011;10645;52.370;13.314;2023-09-18T05:27:57;4.05;;;3.75;;
20972;SDS011;10645;52.370;13.314;2023-09-18T05:32:56;4.75;;;3.30;;
20972;SDS011;10645;52.370;13.314;2023-09-18T05:35:30;6.13;;;4.85;;
20972;SDS011;10645;52.370;13.314;2023-09-18T05:38:06;4.18;;;3.70;;
20972;SDS011;10645;52.370;13.314;2023-09-18T05:40:32;3.17;;;2.85;;
20972;SDS011;10645;52.370;13.314;2023-09-18T05:42:58;5.75;;;4.40;;
20972;SDS011;10645;52.370;13.314;2023-09-18T05:45:24;3.90;;;3.60;;
20972;SDS011;10645;52.370;13.314;2023-09-18T05:47:52;4.82;;;4.28;;
20972;SDS011;10645;52.370;13.314;2023-09-18T05:50:19;5.78;;;3.95;;
20972;SDS011;10645;52.370;13.314;2023-09-18T05:52:45;3.83;;;3.50;;
20972;SDS011;10645;52.370;13.314;2023-09-18T05:55:13;6.40;;;4.00;;
20972;SDS011;10645;52.370;13.314;2023-09-18T05:57:40;4.35;;;3.58;;
20972;SDS011;10645;52.370;13.314;2023-09-18T06:00:07;3.42;;;3.13;;
20972;SDS011;10645;52.370;13.314;2023-09-18T06:02:39;5.53;;;3.92;;
20972;SDS011;10645;52.370;13.314;2023-09-18T06:05:06;3.45;;;3.15;;
20972;SDS011;10645;52.370;13.314;2023-09-18T06:07:32;4.70;;;4.22;;
20972;SDS011;10645;52.370;13.314;2023-09-18T06:09:58;5.80;;;3.90;;
20972;SDS011;10645;52.370;13.314;2023-09-18T06:12:24;4.00;;;3.70;;
20972;SDS011;10645;52.370;13.314;2023-09-18T06:14:51;3.22;;;3.03;;
20972;SDS011;10645;52.370;13.314;2023-09-18T06:17:17;7.05;;;4.75;;
20972;SDS011;10645;52.370;13.314;2023-09-18T06:19:44;5.53;;;5.03;;
20972;SDS011;10645;52.370;13.314;2023-09-18T06:22:11;4.00;;;3.65;;
20972;SDS011;10645;52.370;13.314;2023-09-18T06:24:38;3.83;;;3.53;;
20972;SDS011;10645;52.370;13.314;2023-09-18T06:27:04;5.95;;;3.97;;
20972;SDS011;10645;52.370;13.314;2023-09-18T06:29:33;5.65;;;3.85;;
20972;SDS011;10645;52.370;13.314;2023-09-18T06:32:03;4.25;;;3.85;;
20972;SDS011;10645;52.370;13.314;2023-09-18T06:34:29;3.10;;;2.80;;
20972;SDS011;10645;52.370;13.314;2023-09-18T06:36:55;3.45;;;3.15;;
20972;SDS011;10645;52.370;13.314;2023-09-18T06:39:21;3.65;;;2.92;;
20972;SDS011;10645;52.370;13.314;2023-09-18T06:41:49;4.05;;;3.30;;
20972;SDS011;10645;52.370;13.314;2023-09-18T06:44:18;4.05;;;3.67;;
20972;SDS011;10645;52.370;13.314;2023-09-18T06:46:44;3.25;;;2.92;;
20972;SDS011;10645;52.370;13.314;2023-09-18T06:49:10;3.85;;;3.53;;
20972;SDS011;10645;52.370;13.314;2023-09-18T06:51:36;4.05;;;3.30;;
20972;SDS011;10645;52.370;13.314;2023-09-18T06:54:02;4.18;;;3.75;;
20972;SDS011;10645;52.370;13.314;2023-09-18T06:56:28;5.40;;;3.92;;
20972;SDS011;10645;52.370;13.314;2023-09-18T06:58:55;3.13;;;2.92;;
20972;SDS011;10645;52.370;13.314;2023-09-18T07:01:21;6.03;;;3.72;;
20972;SDS011;10645;52.370;13.314;2023-09-18T07:03:47;5.38;;;3.50;;
20972;SDS011;10645;52.370;13.314;2023-09-18T07:06:14;3.45;;;3.15;;
20972;SDS011;10645;52.370;13.314;2023-09-18T07:08:48;3.60;;;3.28;;
20972;SDS011;10645;52.370;13.314;2023-09-18T07:11:15;5.28;;;4.43;;
20972;SDS011;10645;52.370;13.314;2023-09-18T07:13:42;4.00;;;3.15;;
20972;SDS011;10645;52.370;13.314;2023-09-18T07:16:09;3.63;;;2.53;;
20972;SDS011;10645;52.370;13.314;2023-09-18T07:18:36;3.67;;;3.38;;
20972;SDS011;10645;52.370;13.314;2023-09-18T07:21:02;4.72;;;3.42;;
20972;SDS011;10645;52.370;13.314;2023-09-18T07:23:28;4.20;;;3.83;;
20972;SDS011;10645;52.370;13.314;2023-09-18T07:25:54;3.38;;;2.95;;
20972;SDS011;10645;52.370;13.314;2023-09-18T07:28:20;3.97;;;2.88;;
20972;SDS011;10645;52.370;13.314;2023-09-18T07:30:46;4.18;;;3.65;;
20972;SDS011;10645;52.370;13.314;2023-09-18T07:33:13;4.32;;;3.47;;
20972;SDS011;10645;52.370;13.314;2023-09-18T07:35:46;3.50;;;2.92;;
20972;SDS011;10645;52.370;13.314;2023-09-18T07:38:13;3.42;;;3.22;;
20972;SDS011;10645;52.370;13.314;2023-09-18T07:40:39;4.30;;;3.90;;
20972;SDS011;10645;52.370;13.314;2023-09-18T07:43:05;3.15;;;2.83;;
20972;SDS011;10645;52.370;13.314;2023-09-18T07:45:31;3.60;;;3.30;;
20972;SDS011;10645;52.370;13.314;2023-09-18T07:47:59;6.05;;;3.40;;
20972;SDS011;10645;52.370;13.314;2023-09-18T07:50:25;3.53;;;3.10;;
20972;SDS011;10645;52.370;13.314;2023-09-18T07:52:51;4.22;;;3.58;;
20972;SDS011;10645;52.370;13.314;2023-09-18T07:55:17;2.55;;;2.35;;
20972;SDS011;10645;52.370;13.314;2023-09-18T07:57:43;4.55;;;3.25;;
20972;SDS011;10645;52.370;13.314;2023-09-18T08:00:11;5.53;;;3.05;;
20972;SDS011;10645;52.370;13.314;2023-09-18T08:02:41;4.68;;;3.03;;
20972;SDS011;10645;52.370;13.314;2023-09-18T08:05:07;3.10;;;2.83;;
20972;SDS011;10645;52.370;13.314;2023-09-18T08:07:36;4.18;;;3.53;;
20972;SDS011;10645;52.370;13.314;2023-09-18T08:10:03;2.78;;;2.58;;
20972;SDS011;10645;52.370;13.314;2023-09-18T08:12:34;4.18;;;2.72;;
20972;SDS011;10645;52.370;13.314;2023-09-18T08:15:00;3.63;;;3.33;;
20972;SDS011;10645;52.370;13.314;2023-09-18T08:17:28;3.72;;;3.42;;
20972;SDS011;10645;52.370;13.314;2023-09-18T08:19:54;4.90;;;3.17;;
20972;SDS011;10645;52.370;13.314;2023-09-18T08:22:21;4.75;;;2.67;;
20972;SDS011;10645;52.370;13.314;2023-09-18T08:24:47;3.40;;;3.10;;
20972;SDS011;10645;52.370;13.314;2023-09-18T08:27:15;3.75;;;3.45;;
20972;SDS011;10645;52.370;13.314;2023-09-18T08:29:47;3.03;;;2.78;;
20972;SDS011;10645;52.370;13.314;2023-09-18T08:32:13;5.97;;;2.85;;
20972;SDS011;10645;52.370;13.314;2023-09-18T08:34:39;3.08;;;2.85;;
20972;SDS011;10645;52.370;13.314;2023-09-18T08:37:05;3.03;;;2.53;;
20972;SDS011;10645;52.370;13.314;2023-09-18T08:39:31;3.03;;;2.72;;
20972;SDS011;10645;52.370;13.314;2023-09-18T08:41:59;4.95;;;3.50;;
20972;SDS011;10645;52.370;13.314;2023-09-18T08:44:29;3.33;;;3.05;;
20972;SDS011;10645;52.370;13.314;2023-09-18T08:46:56;2.63;;;2.42;;
20972;SDS011;10645;52.370;13.314;2023-09-18T08:49:22;3.05;;;2.83;;
20972;SDS011;10645;52.370;13.314;2023-09-18T08:51:50;4.22;;;3.45;;
20972;SDS011;10645;52.370;13.314;2023-09-18T08:54:19;3.35;;;2.80;;
20972;SDS011;10645;52.370;13.314;2023-09-18T08:56:46;9.82;;;3.25;;
20972;SDS011;10645;52.370;13.314;2023-09-18T08:59:12;2.47;;;2.28;;
20972;SDS011;10645;52.370;13.314;2023-09-18T09:01:39;2.70;;;2.50;;
20972;SDS011;10645;52.370;13.314;2023-09-18T09:04:05;3.45;;;3.15;;
20972;SDS011;10645;52.370;13.314;2023-09-18T09:06:31;3.10;;;2.90;;
20972;SDS011;10645;52.370;13.314;2023-09-18T09:08:57;2.53;;;2.30;;
20972;SDS011;10645;52.370;13.314;2023-09-18T09:11:24;3.20;;;2.95;;
20972;SDS011;10645;52.370;13.314;2023-09-18T09:14:08;3.33;;;3.03;;
20972;SDS011;10645;52.370;13.314;2023-09-18T09:16:46;3.72;;;2.80;;
20972;SDS011;10645;52.370;13.314;2023-09-18T09:19:16;2.70;;;2.50;;
20972;SDS011;10645;52.370;13.314;2023-09-18T09:21:43;2.63;;;2.42;;
20972;SDS011;10645;52.370;13.314;2023-09-18T09:24:13;4.13;;;2.85;;
20972;SDS011;10645;52.370;13.314;2023-09-18T09:26:42;3.17;;;2.97;;
20972;SDS011;10645;52.370;13.314;2023-09-18T09:29:15;2.33;;;2.20;;
20972;SDS011;10645;52.370;13.314;2023-09-18T09:31:44;2.25;;;2.15;;
20972;SDS011;10645;52.370;13.314;2023-09-18T09:34:11;3.05;;;2.85;;
20972;SDS011;10645;52.370;13.314;2023-09-18T09:36:53;2.13;;;2.03;;
20972;SDS011;10645;52.370;13.314;2023-09-18T09:39:20;1.80;;;1.70;;
20972;SDS011;10645;52.370;13.314;2023-09-18T09:41:49;3.00;;;2.70;;
20972;SDS011;10645;52.370;13.314;2023-09-18T09:44:16;2.63;;;2.42;;
20972;SDS011;10645;52.370;13.314;2023-09-18T09:46:45;3.05;;;2.42;;
20972;SDS011;10645;52.370;13.314;2023-09-18T09:49:14;2.92;;;2.60;;
20972;SDS011;10645;52.370;13.314;2023-09-18T09:51:41;2.65;;;2.45;;
20972;SDS011;10645;52.370;13.314;2023-09-18T09:54:07;2.85;;;2.65;;
20972;SDS011;10645;52.370;13.314;2023-09-18T09:59:10;2.50;;;2.30;;
20972;SDS011;10645;52.370;13.314;2023-09-18T10:01:37;3.63;;;3.33;;
20972;SDS011;10645;52.370;13.314;2023-09-18T10:04:04;2.38;;;2.15;;
20972;SDS011;10645;52.370;13.314;2023-09-18T10:06:34;3.50;;;2.83;;
20972;SDS011;10645;52.370;13.314;2023-09-18T10:09:02;3.47;;;3.08;;
20972;SDS011;10645;52.370;13.314;2023-09-18T10:11:32;2.33;;;2.08;;
20972;SDS011;10645;52.370;13.314;2023-09-18T10:14:04;2.20;;;2.00;;
20972;SDS011;10645;52.370;13.314;2023-09-18T10:16:35;2.28;;;2.17;;
20972;SDS011;10645;52.370;13.314;2023-09-18T10:19:08;2.42;;;2.22;;
20972;SDS011;10645;52.370;13.314;2023-09-18T10:21:53;3.67;;;3.05;;
20972;SDS011;10645;52.370;13.314;2023-09-18T10:24:34;2.47;;;2.28;;
20972;SDS011;10645;52.370;13.314;2023-09-18T10:27:06;6.22;;;3.83;;
20972;SDS011;10645;52.370;13.314;2023-09-18T10:29:35;2.55;;;2.35;;
20972;SDS011;10645;52.370;13.314;2023-09-18T10:32:02;2.63;;;2.42;;
20972;SDS011;10645;52.370;13.314;2023-09-18T10:34:30;2.35;;;2.15;;
20972;SDS011;10645;52.370;13.314;2023-09-18T10:36:57;3.00;;;2.80;;
20972;SDS011;10645;52.370;13.314;2023-09-18T10:39:26;3.25;;;2.50;;
20972;SDS011;10645;52.370;13.314;2023-09-18T10:41:54;2.70;;;2.50;;
20972;SDS011;10645;52.370;13.314;2023-09-18T10:44:23;3.75;;;2.58;;
20972;SDS011;10645;52.370;13.314;2023-09-18T10:46:49;2.85;;;2.42;;
20972;SDS011;10645;52.370;13.314;2023-09-18T10:49:18;2.75;;;2.50;;
20972;SDS011;10645;52.370;13.314;2023-09-18T10:51:48;2.75;;;2.55;;
20972;SDS011;10645;52.370;13.314;2023-09-18T10:54:20;3.10;;;2.80;;
20972;SDS011;10645;52.370;13.314;2023-09-18T10:56:48;3.88;;;3.55;;
20972;SDS011;10645;52.370;13.314;2023-09-18T10:59:14;2.95;;;2.65;;
20972;SDS011;10645;52.370;13.314;2023-09-18T11:01:42;3.30;;;2.75;;
20972;SDS011;10645;52.370;13.314;2023-09-18T11:04:08;2.38;;;2.17;;
20972;SDS011;10645;52.370;13.314;2023-09-18T11:09:47;3.28;;;2.78;;
20972;SDS011;10645;52.370;13.314;2023-09-18T11:12:17;3.42;;;3.05;;
20972;SDS011;10645;52.370;13.314;2023-09-18T11:14:48;2.60;;;2.40;;
20972;SDS011;10645;52.370;13.314;2023-09-18T11:20:04;3.30;;;3.00;;
20972;SDS011;10645;52.370;13.314;2023-09-18T11:22:38;2.38;;;2.28;;
20972;SDS011;10645;52.370;13.314;2023-09-18T11:27:55;4.57;;;3.28;;
20972;SDS011;10645;52.370;13.314;2023-09-18T11:30:21;3.00;;;2.80;;
20972;SDS011;10645;52.370;13.314;2023-09-18T11:32:49;2.92;;;2.72;;
20972;SDS011;10645;52.370;13.314;2023-09-18T11:35:15;3.05;;;2.75;;
20972;SDS011;10645;52.370;13.314;2023-09-18T11:37:45;4.32;;;3.17;;
20972;SDS011;10645;52.370;13.314;2023-09-18T11:40:30;3.20;;;2.78;;
20972;SDS011;10645;52.370;13.314;2023-09-18T11:45:58;3.00;;;2.67;;
20972;SDS011;10645;52.370;13.314;2023-09-18T11:48:27;2.60;;;2.40;;
20972;SDS011;10645;52.370;13.314;2023-09-18T11:50:58;2.60;;;2.40;;
20972;SDS011;10645;52.370;13.314;2023-09-18T11:53:28;2.15;;;2.00;;
20972;SDS011;10645;52.370;13.314;2023-09-18T11:55:54;2.60;;;2.40;;
20972;SDS011;10645;52.370;13.314;2023-09-18T11:58:21;4.55;;;2.40;;
20972;SDS011;10645;52.370;13.314;2023-09-18T12:00:49;1.70;;;1.60;;
20972;SDS011;10645;52.370;13.314;2023-09-18T12:03:20;1.88;;;1.77;;
20972;SDS011;10645;52.370;13.314;2023-09-18T12:05:57;2.28;;;1.92;;
20972;SDS011;10645;52.370;13.314;2023-09-18T12:08:28;6.30;;;2.30;;
20972;SDS011;10645;52.370;13.314;2023-09-18T12:10:56;3.42;;;2.35;;
20972;SDS011;10645;52.370;13.314;2023-09-18T12:13:26;2.72;;;2.50;;
20972;SDS011;10645;52.370;13.314;2023-09-18T12:15:56;4.03;;;2.88;;
20972;SDS011;10645;52.370;13.314;2023-09-18T12:18:24;3.75;;;2.40;;
20972;SDS011;10645;52.370;13.314;2023-09-18T12:20:50;2.17;;;1.98;;
20972;SDS011;10645;52.370;13.314;2023-09-18T12:23:17;3.08;;;2.28;;
20972;SDS011;10645;52.370;13.314;2023-09-18T12:25:49;3.15;;;2.15;;
20972;SDS011;10645;52.370;13.314;2023-09-18T12:28:22;2.22;;;2.03;;
20972;SDS011;10645;52.370;13.314;2023-09-18T12:30:50;3.75;;;2.45;;
20972;SDS011;10645;52.370;13.314;2023-09-18T12:33:21;4.72;;;2.17;;
20972;SDS011;10645;52.370;13.314;2023-09-18T12:35:49;2.35;;;2.15;;
20972;SDS011;10645;52.370;13.314;2023-09-18T12:38:16;2.78;;;2.50;;
20972;SDS011;10645;52.370;13.314;2023-09-18T12:40:50;2.60;;;2.22;;
20972;SDS011;10645;52.370;13.314;2023-09-18T12:43:17;2.63;;;2.30;;
20972;SDS011;10645;52.370;13.314;2023-09-18T12:45:43;2.88;;;2.58;;
20972;SDS011;10645;52.370;13.314;2023-09-18T12:48:11;2.55;;;1.90;;
20972;SDS011;10645;52.370;13.314;2023-09-18T12:50:39;2.75;;;1.80;;
20972;SDS011;10645;52.370;13.314;2023-09-18T12:53:11;3.80;;;3.50;;
20972;SDS011;10645;52.370;13.314;2023-09-18T12:55:40;2.50;;;2.30;;
20972;SDS011;10645;52.370;13.314;2023-09-18T12:58:09;2.63;;;2.42;;
20972;SDS011;10645;52.370;13.314;2023-09-18T13:00:36;2.30;;;1.98;;
20972;SDS011;10645;52.370;13.314;2023-09-18T13:03:11;2.75;;;2.03;;
20972;SDS011;10645;52.370;13.314;2023-09-18T13:05:38;2.45;;;2.25;;
20972;SDS011;10645;52.370;13.314;2023-09-18T13:08:05;3.05;;;2.35;;
20972;SDS011;10645;52.370;13.314;2023-09-18T13:10:40;2.60;;;2.40;;
20972;SDS011;10645;52.370;13.314;2023-09-18T13:13:20;7.55;;;2.75;;
20972;SDS011;10645;52.370;13.314;2023-09-18T13:15:47;2.58;;;2.38;;
20972;SDS011;10645;52.370;13.314;2023-09-18T13:18:15;3.13;;;2.00;;
20972;SDS011;10645;52.370;13.314;2023-09-18T13:20:42;2.47;;;2.25;;
20972;SDS011;10645;52.370;13.314;2023-09-18T13:23:09;2.40;;;2.20;;
20972;SDS011;10645;52.370;13.314;2023-09-18T13:25:36;3.47;;;2.10;;
20972;SDS011;10645;52.370;13.314;2023-09-18T13:28:05;2.45;;;2.25;;
20972;SDS011;10645;52.370;13.314;2023-09-18T13:30:32;2.63;;;2.42;;
20972;SDS011;10645;52.370;13.314;2023-09-18T13:33:01;3.85;;;2.35;;
20972;SDS011;10645;52.370;13.314;2023-09-18T13:35:34;3.78;;;2.17;;
20972;SDS011;10645;52.370;13.314;2023-09-18T13:38:01;1.75;;;1.65;;
20972;SDS011;10645;52.370;13.314;2023-09-18T13:40:30;8.15;;;3.03;;
20972;SDS011;10645;52.370;13.314;2023-09-18T13:42:58;2.85;;;2.58;;
20972;SDS011;10645;52.370;13.314;2023-09-18T13:45:25;2.70;;;2.50;;
20972;SDS011;10645;52.370;13.314;2023-09-18T13:47:51;1.75;;;1.65;;
20972;SDS011;10645;52.370;13.314;2023-09-18T13:50:17;2.53;;;2.17;;
20972;SDS011;10645;52.370;13.314;2023-09-18T13:52:43;2.08;;;1.90;;
20972;SDS011;10645;52.370;13.314;2023-09-18T13:55:09;7.65;;;2.28;;
20972;SDS011;10645;52.370;13.314;2023-09-18T13:57:35;4.82;;;1.90;;
20972;SDS011;10645;52.370;13.314;2023-09-18T14:00:02;1.67;;;1.58;;
20972;SDS011;10645;52.370;13.314;2023-09-18T14:02:38;2.50;;;2.30;;
20972;SDS011;10645;52.370;13.314;2023-09-18T14:05:05;2.67;;;2.20;;
20972;SDS011;10645;52.370;13.314;2023-09-18T14:07:31;3.22;;;2.55;;
20972;SDS011;10645;52.370;13.314;2023-09-18T14:09:58;2.55;;;2.35;;
20972;SDS011;10645;52.370;13.314;2023-09-18T14:12:24;2.25;;;2.05;;
20972;SDS011;10645;52.370;13.314;2023-09-18T14:14:50;4.28;;;2.33;;
20972;SDS011;10645;52.370;13.314;2023-09-18T14:17:17;2.75;;;1.77;;
20972;SDS011;10645;52.370;13.314;2023-09-18T14:19:47;1.80;;;1.67;;
20972;SDS011;10645;52.370;13.314;2023-09-18T14:22:13;1.80;;;1.70;;
20972;SDS011;10645;52.370;13.314;2023-09-18T14:24:40;6.07;;;3.05;;
20972;SDS011;10645;52.370;13.314;2023-09-18T14:27:06;5.10;;;1.48;;
20972;SDS011;10645;52.370;13.314;2023-09-18T14:29:33;2.30;;;1.65;;
20972;SDS011;10645;52.370;13.314;2023-09-18T14:31:59;1.50;;;1.40;;
20972;SDS011;10645;52.370;13.314;2023-09-18T14:34:26;2.67;;;1.67;;
20972;SDS011;10645;52.370;13.314;2023-09-18T14:36:52;2.28;;;1.70;;
20972;SDS011;10645;52.370;13.314;2023-09-18T14:39:18;4.18;;;2.10;;
20972;SDS011;10645;52.370;13.314;2023-09-18T14:41:44;7.90;;;2.30;;
20972;SDS011;10645;52.370;13.314;2023-09-18T14:44:10;2.25;;;2.05;;
20972;SDS011;10645;52.370;13.314;2023-09-18T14:46:37;0.95;;;0.90;;
20972;SDS011;10645;52.370;13.314;2023-09-18T14:49:04;2.67;;;1.30;;
20972;SDS011;10645;52.370;13.314;2023-09-18T14:51:30;1.63;;;1.52;;
20972;SDS011;10645;52.370;13.314;2023-09-18T14:53:57;1.92;;;1.50;;